CKS5 EGPK-LIMC
Flight info
| Callsign | CKS5 |
|---|---|
| Flight time | 2h 9m |
| Altitude | 35000 |
| Route | EGPK/12 N0477F350 DCT LUSIV DCT BELOX L603 BUKUT DCT LAMSO DCT REMBA M624 RITAX UT27 ROUSY DCT DEVDI DCT ODINA ODIN3V LIMC/17L |
| Aircraft | B77F/H-V/N |
Departure
| Time | 2026-04-30 08:09 |
|---|---|
| Airport | Glasgow Prestwick Airport (EGPK) |
Arrival
| Time | 2026-04-30 10:19 |
|---|---|
| Airport | Milan Malpensa International Airport (LIMC) |
| Time | Latitude | Longitude | Altitude | Speed | Heading |
|---|---|---|---|---|---|
| 2026-04-30 07:47 | 55.51008 | -4.60870 | 49 ft | 0 kts | 245° |
| 2026-04-30 08:00 | 55.51010 | -4.60863 | 49 ft | 2 kts | 243° |
| 2026-04-30 08:00 | 55.51019 | -4.60839 | 45 ft | 2 kts | 225° |
| 2026-04-30 08:01 | 55.51032 | -4.60821 | 46 ft | 2 kts | 202° |
| 2026-04-30 08:01 | 55.51048 | -4.60813 | 43 ft | 2 kts | 185° |
| 2026-04-30 08:01 | 55.51065 | -4.60811 | 44 ft | 2 kts | 191° |
| 2026-04-30 08:01 | 55.51080 | -4.60801 | 44 ft | 2 kts | 204° |
| 2026-04-30 08:02 | 55.51110 | -4.60777 | 44 ft | 2 kts | 207° |
| 2026-04-30 08:02 | 55.51124 | -4.60763 | 44 ft | 2 kts | 215° |
| 2026-04-30 08:03 | 55.51152 | -4.60730 | 52 ft | 2 kts | 227° |
| 2026-04-30 08:03 | 55.51159 | -4.60677 | 47 ft | 2 kts | 291° |
| 2026-04-30 08:03 | 55.51157 | -4.60666 | 47 ft | 0 kts | 299° |
| 2026-04-30 08:05 | 55.51160 | -4.60676 | 47 ft | 2 kts | 301° |
| 2026-04-30 08:05 | 55.51170 | -4.60707 | 49 ft | 4 kts | 301° |
| 2026-04-30 08:05 | 55.51190 | -4.60764 | 49 ft | 7 kts | 301° |
| 2026-04-30 08:06 | 55.51219 | -4.60847 | 45 ft | 8 kts | 301° |
| 2026-04-30 08:06 | 55.51251 | -4.60941 | 45 ft | 10 kts | 301° |
| 2026-04-30 08:06 | 55.51298 | -4.61075 | 48 ft | 15 kts | 301° |
| 2026-04-30 08:06 | 55.51326 | -4.61158 | 48 ft | 0 kts | 301° |
| 2026-04-30 08:07 | 55.51350 | -4.61225 | 45 ft | 13 kts | 302° |
| 2026-04-30 08:07 | 55.51399 | -4.61365 | 46 ft | 13 kts | 304° |
| 2026-04-30 08:07 | 55.51465 | -4.61478 | 50 ft | 13 kts | 326° |
| 2026-04-30 08:07 | 55.51551 | -4.61527 | 48 ft | 11 kts | 359° |
| 2026-04-30 08:08 | 55.51610 | -4.61444 | 48 ft | 12 kts | 75° |
| 2026-04-30 08:08 | 55.51569 | -4.61278 | 47 ft | 26 kts | 122° |
| 2026-04-30 08:08 | 55.51334 | -4.60597 | 48 ft | 104 kts | 122° |
| 2026-04-30 08:08 | 55.50835 | -4.59143 | 63 ft | 170 kts | 120° |
| 2026-04-30 08:09 | 55.50156 | -4.57248 | 519 ft | 184 kts | 120° |
| 2026-04-30 08:09 | 55.49553 | -4.55310 | 1459 ft | 176 kts | 104° |
| 2026-04-30 08:09 | 55.49525 | -4.53837 | 1846 ft | 185 kts | 81° |
| 2026-04-30 08:09 | 55.50645 | -4.51311 | 2371 ft | 220 kts | 34° |
| 2026-04-30 08:10 | 55.51644 | -4.50636 | 2724 ft | 234 kts | 18° |
| 2026-04-30 08:10 | 55.53197 | -4.49608 | 2971 ft | 248 kts | 37° |
| 2026-04-30 08:10 | 55.54607 | -4.47700 | 3378 ft | 260 kts | 47° |
| 2026-04-30 08:10 | 55.54919 | -4.47207 | 3550 ft | 261 kts | 47° |
| 2026-04-30 08:11 | 55.56005 | -4.45403 | 4089 ft | 267 kts | 50° |
| 2026-04-30 08:11 | 55.57337 | -4.43027 | 4728 ft | 276 kts | 51° |
| 2026-04-30 08:11 | 55.58625 | -4.40534 | 5590 ft | 275 kts | 54° |
| 2026-04-30 08:11 | 55.60271 | -4.37094 | 6652 ft | 278 kts | 54° |
| 2026-04-30 08:12 | 55.61124 | -4.35322 | 7161 ft | 281 kts | 53° |
| 2026-04-30 08:12 | 55.62425 | -4.32782 | 7930 ft | 280 kts | 54° |
| 2026-04-30 08:12 | 55.63410 | -4.29842 | 8463 ft | 279 kts | 80° |
| 2026-04-30 08:12 | 55.63528 | -4.26514 | 9195 ft | 269 kts | 107° |
| 2026-04-30 08:13 | 55.62720 | -4.23624 | 9958 ft | 262 kts | 136° |
| 2026-04-30 08:13 | 55.61190 | -4.21993 | 10701 ft | 260 kts | 166° |
| 2026-04-30 08:13 | 55.59407 | -4.21580 | 11388 ft | 260 kts | 169° |
| 2026-04-30 08:13 | 55.57596 | -4.20895 | 11807 ft | 276 kts | 164° |
| 2026-04-30 08:14 | 55.55656 | -4.19951 | 11974 ft | 302 kts | 163° |
| 2026-04-30 08:14 | 55.53545 | -4.18920 | 12173 ft | 328 kts | 164° |
| 2026-04-30 08:14 | 55.51269 | -4.17834 | 12595 ft | 346 kts | 164° |
| 2026-04-30 08:14 | 55.48910 | -4.16736 | 13308 ft | 355 kts | 165° |
| 2026-04-30 08:15 | 55.46498 | -4.15636 | 14148 ft | 361 kts | 165° |
| 2026-04-30 08:15 | 55.44052 | -4.14538 | 14939 ft | 365 kts | 165° |
| 2026-04-30 08:15 | 55.41577 | -4.13439 | 15759 ft | 368 kts | 165° |
| 2026-04-30 08:15 | 55.39079 | -4.12339 | 16556 ft | 372 kts | 165° |
| 2026-04-30 08:16 | 55.36557 | -4.11232 | 17321 ft | 376 kts | 165° |
| 2026-04-30 08:16 | 55.34003 | -4.10114 | 18098 ft | 380 kts | 166° |
| 2026-04-30 08:16 | 55.31424 | -4.08988 | 18828 ft | 384 kts | 166° |
| 2026-04-30 08:16 | 55.28813 | -4.07850 | 19491 ft | 388 kts | 166° |
| 2026-04-30 08:17 | 55.26180 | -4.06704 | 20146 ft | 392 kts | 166° |
| 2026-04-30 08:17 | 55.23518 | -4.05548 | 20776 ft | 396 kts | 166° |
| 2026-04-30 08:17 | 55.20833 | -4.04383 | 21410 ft | 400 kts | 166° |
| 2026-04-30 08:17 | 55.18119 | -4.03207 | 22048 ft | 404 kts | 166° |
| 2026-04-30 08:18 | 55.15384 | -4.02024 | 22670 ft | 408 kts | 166° |
| 2026-04-30 08:18 | 55.12613 | -4.00825 | 23273 ft | 412 kts | 166° |
| 2026-04-30 08:18 | 55.09812 | -3.99617 | 23866 ft | 416 kts | 166° |
| 2026-04-30 08:18 | 55.06985 | -3.98399 | 24390 ft | 420 kts | 166° |
| 2026-04-30 08:19 | 55.04138 | -3.97175 | 24937 ft | 423 kts | 166° |
| 2026-04-30 08:19 | 55.01269 | -3.95943 | 25456 ft | 426 kts | 166° |
| 2026-04-30 08:19 | 54.98380 | -3.94703 | 25978 ft | 429 kts | 166° |
| 2026-04-30 08:19 | 54.95473 | -3.93458 | 26479 ft | 432 kts | 166° |
| 2026-04-30 08:20 | 54.92539 | -3.92203 | 26990 ft | 436 kts | 166° |
| 2026-04-30 08:20 | 54.89588 | -3.90942 | 27465 ft | 439 kts | 166° |
| 2026-04-30 08:20 | 54.86608 | -3.89671 | 27948 ft | 442 kts | 166° |
| 2026-04-30 08:20 | 54.83610 | -3.88395 | 28414 ft | 445 kts | 166° |
| 2026-04-30 08:21 | 54.80592 | -3.87112 | 28874 ft | 448 kts | 166° |
| 2026-04-30 08:21 | 54.77559 | -3.85825 | 29313 ft | 451 kts | 166° |
| 2026-04-30 08:21 | 54.74501 | -3.84528 | 29721 ft | 454 kts | 166° |
| 2026-04-30 08:21 | 54.71425 | -3.83226 | 30110 ft | 457 kts | 166° |
| 2026-04-30 08:22 | 54.68331 | -3.81919 | 30481 ft | 459 kts | 166° |
| 2026-04-30 08:22 | 54.65228 | -3.80610 | 30916 ft | 458 kts | 166° |
| 2026-04-30 08:22 | 54.62183 | -3.79327 | 31385 ft | 456 kts | 166° |
| 2026-04-30 08:22 | 54.59069 | -3.78018 | 31857 ft | 454 kts | 166° |
| 2026-04-30 08:23 | 54.55999 | -3.76729 | 32274 ft | 454 kts | 166° |
| 2026-04-30 08:23 | 54.52971 | -3.75459 | 32690 ft | 453 kts | 166° |
| 2026-04-30 08:23 | 54.49912 | -3.74179 | 33102 ft | 452 kts | 166° |
| 2026-04-30 08:23 | 54.46857 | -3.72902 | 33526 ft | 451 kts | 166° |
| 2026-04-30 08:24 | 54.43810 | -3.71631 | 33934 ft | 450 kts | 166° |
| 2026-04-30 08:24 | 54.40772 | -3.70365 | 34322 ft | 449 kts | 166° |
| 2026-04-30 08:24 | 54.37738 | -3.69103 | 34657 ft | 448 kts | 166° |
| 2026-04-30 08:24 | 54.34706 | -3.67843 | 34966 ft | 448 kts | 166° |
| 2026-04-30 08:25 | 54.31678 | -3.66587 | 35216 ft | 449 kts | 166° |
| 2026-04-30 08:25 | 54.25842 | -3.62882 | 35286 ft | 451 kts | 146° |
| 2026-04-30 08:25 | 54.23448 | -3.59442 | 35301 ft | 451 kts | 135° |
| 2026-04-30 08:26 | 54.21467 | -3.55294 | 35289 ft | 450 kts | 124° |
| 2026-04-30 08:26 | 54.18209 | -3.46172 | 35304 ft | 450 kts | 123° |
| 2026-04-30 08:27 | 54.14943 | -3.37068 | 35290 ft | 450 kts | 124° |
| 2026-04-30 08:27 | 54.11643 | -3.28007 | 35309 ft | 450 kts | 124° |
| 2026-04-30 08:28 | 54.08318 | -3.18967 | 35292 ft | 450 kts | 124° |
| 2026-04-30 08:28 | 54.04989 | -3.09958 | 35285 ft | 449 kts | 124° |
| 2026-04-30 08:29 | 54.01655 | -3.00969 | 35304 ft | 449 kts | 124° |
| 2026-04-30 08:29 | 53.98324 | -2.92019 | 35304 ft | 448 kts | 124° |
| 2026-04-30 08:30 | 53.94989 | -2.83088 | 35307 ft | 447 kts | 124° |
| 2026-04-30 08:30 | 53.91658 | -2.74202 | 35298 ft | 446 kts | 124° |
| 2026-04-30 08:31 | 53.88324 | -2.65336 | 35301 ft | 446 kts | 124° |
| 2026-04-30 08:31 | 53.85167 | -2.56971 | 35299 ft | 446 kts | 124° |
| 2026-04-30 08:32 | 53.81822 | -2.48140 | 35304 ft | 446 kts | 124° |
| 2026-04-30 08:32 | 53.78490 | -2.39374 | 35309 ft | 446 kts | 124° |
| 2026-04-30 08:33 | 53.75110 | -2.30512 | 35315 ft | 446 kts | 124° |
| 2026-04-30 08:33 | 53.71741 | -2.21707 | 35319 ft | 446 kts | 124° |
| 2026-04-30 08:34 | 53.68366 | -2.12922 | 35324 ft | 447 kts | 124° |
| 2026-04-30 08:34 | 53.64979 | -2.04133 | 35325 ft | 447 kts | 124° |
| 2026-04-30 08:35 | 53.61586 | -1.95362 | 35331 ft | 447 kts | 124° |
| 2026-04-30 08:35 | 53.58204 | -1.86648 | 35334 ft | 447 kts | 124° |
| 2026-04-30 08:36 | 53.54796 | -1.77893 | 35336 ft | 447 kts | 124° |
| 2026-04-30 08:36 | 53.51381 | -1.69150 | 35340 ft | 447 kts | 124° |
| 2026-04-30 08:37 | 53.48149 | -1.60227 | 35332 ft | 449 kts | 118° |
| 2026-04-30 08:37 | 53.45797 | -1.50514 | 35334 ft | 451 kts | 109° |
| 2026-04-30 08:38 | 53.44026 | -1.40406 | 35338 ft | 452 kts | 109° |
| 2026-04-30 08:38 | 53.42225 | -1.30311 | 35329 ft | 452 kts | 109° |
| 2026-04-30 08:39 | 53.40423 | -1.20208 | 35342 ft | 453 kts | 109° |
| 2026-04-30 08:39 | 53.38591 | -1.10117 | 35335 ft | 453 kts | 109° |
| 2026-04-30 08:40 | 53.36725 | -1.00033 | 35336 ft | 453 kts | 109° |
| 2026-04-30 08:40 | 53.34855 | -0.89950 | 35332 ft | 454 kts | 109° |
| 2026-04-30 08:41 | 53.32979 | -0.79858 | 35333 ft | 454 kts | 109° |
| 2026-04-30 08:41 | 53.31095 | -0.69772 | 35322 ft | 455 kts | 109° |
| 2026-04-30 08:42 | 53.29194 | -0.59677 | 35326 ft | 455 kts | 110° |
| 2026-04-30 08:42 | 53.27288 | -0.49602 | 35317 ft | 455 kts | 110° |
| 2026-04-30 08:43 | 53.25375 | -0.39518 | 35320 ft | 456 kts | 109° |
| 2026-04-30 08:43 | 53.23466 | -0.29423 | 35328 ft | 456 kts | 109° |
| 2026-04-30 08:44 | 53.21531 | -0.19357 | 35323 ft | 455 kts | 110° |
| 2026-04-30 08:44 | 53.19585 | -0.09308 | 35322 ft | 455 kts | 110° |
| 2026-04-30 08:45 | 53.17634 | 0.00739 | 35323 ft | 455 kts | 110° |
| 2026-04-30 08:45 | 53.15684 | 0.10770 | 35329 ft | 455 kts | 110° |
| 2026-04-30 08:46 | 53.13728 | 0.20802 | 35334 ft | 455 kts | 110° |
| 2026-04-30 08:46 | 53.11765 | 0.30816 | 35342 ft | 455 kts | 110° |
| 2026-04-30 08:47 | 53.09791 | 0.40829 | 35352 ft | 455 kts | 110° |
| 2026-04-30 08:47 | 53.07808 | 0.50835 | 35353 ft | 455 kts | 110° |
| 2026-04-30 08:48 | 53.05816 | 0.60834 | 35356 ft | 456 kts | 110° |
| 2026-04-30 08:48 | 53.03816 | 0.70828 | 35356 ft | 456 kts | 110° |
| 2026-04-30 08:49 | 53.01819 | 0.80756 | 35360 ft | 456 kts | 110° |
| 2026-04-30 08:49 | 52.99802 | 0.90742 | 35361 ft | 456 kts | 109° |
| 2026-04-30 08:49 | 52.99106 | 0.95865 | 35351 ft | 457 kts | 95° |
| 2026-04-30 08:50 | 52.99119 | 1.01120 | 35365 ft | 451 kts | 94° |
| 2026-04-30 08:50 | 52.98526 | 1.06200 | 35370 ft | 449 kts | 111° |
| 2026-04-30 08:50 | 52.97432 | 1.11085 | 35366 ft | 455 kts | 111° |
| 2026-04-30 08:51 | 52.95556 | 1.21194 | 35367 ft | 460 kts | 105° |
| 2026-04-30 08:51 | 52.94173 | 1.31562 | 35365 ft | 461 kts | 102° |
| 2026-04-30 08:52 | 52.92969 | 1.41992 | 35365 ft | 460 kts | 102° |
| 2026-04-30 08:52 | 52.91767 | 1.52394 | 35366 ft | 459 kts | 102° |
| 2026-04-30 08:53 | 52.90539 | 1.62740 | 35373 ft | 457 kts | 102° |
| 2026-04-30 08:53 | 52.89295 | 1.73049 | 35374 ft | 456 kts | 102° |
| 2026-04-30 08:54 | 52.88043 | 1.83328 | 35378 ft | 455 kts | 102° |
| 2026-04-30 08:54 | 52.86786 | 1.93569 | 35376 ft | 454 kts | 102° |
| 2026-04-30 08:55 | 52.85522 | 2.03803 | 35382 ft | 454 kts | 102° |
| 2026-04-30 08:55 | 52.84467 | 2.12292 | 35380 ft | 454 kts | 102° |
| 2026-04-30 08:56 | 52.83187 | 2.22511 | 35380 ft | 454 kts | 102° |
| 2026-04-30 08:56 | 52.81900 | 2.32716 | 35379 ft | 454 kts | 102° |
| 2026-04-30 08:57 | 52.80604 | 2.42927 | 35384 ft | 454 kts | 103° |
| 2026-04-30 08:57 | 52.79300 | 2.53114 | 35385 ft | 454 kts | 103° |
| 2026-04-30 08:58 | 52.77978 | 2.63311 | 35392 ft | 453 kts | 103° |
| 2026-04-30 08:58 | 52.76653 | 2.73487 | 35388 ft | 453 kts | 103° |
| 2026-04-30 08:59 | 52.75325 | 2.83657 | 35389 ft | 453 kts | 102° |
| 2026-04-30 08:59 | 52.73888 | 2.93745 | 35380 ft | 450 kts | 112° |
| 2026-04-30 08:59 | 52.72383 | 2.98247 | 35407 ft | 450 kts | 126° |
| 2026-04-30 09:00 | 52.70309 | 3.02106 | 35380 ft | 451 kts | 137° |
| 2026-04-30 09:00 | 52.67767 | 3.05110 | 35384 ft | 450 kts | 148° |
| 2026-04-30 09:00 | 52.65048 | 3.07699 | 35391 ft | 455 kts | 148° |
| 2026-04-30 09:01 | 52.59498 | 3.12927 | 35389 ft | 463 kts | 148° |
| 2026-04-30 09:01 | 52.53911 | 3.18252 | 35383 ft | 465 kts | 147° |
| 2026-04-30 09:02 | 52.45534 | 3.26320 | 35372 ft | 465 kts | 147° |
| 2026-04-30 09:02 | 52.39971 | 3.31678 | 35369 ft | 462 kts | 147° |
| 2026-04-30 09:03 | 52.34437 | 3.36991 | 35366 ft | 460 kts | 147° |
| 2026-04-30 09:03 | 52.28925 | 3.42266 | 35368 ft | 458 kts | 147° |
| 2026-04-30 09:04 | 52.23425 | 3.47514 | 35368 ft | 458 kts | 147° |
| 2026-04-30 09:04 | 52.17923 | 3.52748 | 35364 ft | 458 kts | 147° |
| 2026-04-30 09:05 | 52.12414 | 3.57974 | 35368 ft | 459 kts | 147° |
| 2026-04-30 09:05 | 52.06890 | 3.63199 | 35368 ft | 460 kts | 147° |
| 2026-04-30 09:06 | 52.01352 | 3.68422 | 35369 ft | 461 kts | 147° |
| 2026-04-30 09:06 | 51.95815 | 3.73710 | 35365 ft | 462 kts | 146° |
| 2026-04-30 09:07 | 51.90352 | 3.79191 | 35363 ft | 462 kts | 146° |
| 2026-04-30 09:07 | 51.84885 | 3.84703 | 35361 ft | 463 kts | 146° |
| 2026-04-30 09:08 | 51.79404 | 3.90181 | 35363 ft | 464 kts | 146° |
| 2026-04-30 09:08 | 51.73903 | 3.95640 | 35354 ft | 464 kts | 146° |
| 2026-04-30 09:09 | 51.68401 | 4.01078 | 35352 ft | 464 kts | 146° |
| 2026-04-30 09:09 | 51.62889 | 4.06508 | 35345 ft | 464 kts | 146° |
| 2026-04-30 09:10 | 51.57375 | 4.11928 | 35347 ft | 464 kts | 146° |
| 2026-04-30 09:10 | 51.51869 | 4.17323 | 35347 ft | 464 kts | 146° |
| 2026-04-30 09:11 | 51.46397 | 4.22671 | 35348 ft | 463 kts | 146° |
| 2026-04-30 09:11 | 51.40892 | 4.28035 | 35350 ft | 463 kts | 146° |
| 2026-04-30 09:12 | 51.35386 | 4.33386 | 35351 ft | 463 kts | 146° |
| 2026-04-30 09:12 | 51.29882 | 4.38718 | 35347 ft | 462 kts | 146° |
| 2026-04-30 09:13 | 51.24376 | 4.44038 | 35348 ft | 462 kts | 146° |
| 2026-04-30 09:13 | 51.18871 | 4.49342 | 35347 ft | 462 kts | 146° |
| 2026-04-30 09:14 | 51.13361 | 4.54636 | 35349 ft | 462 kts | 146° |
| 2026-04-30 09:14 | 51.07850 | 4.59917 | 35349 ft | 463 kts | 146° |
| 2026-04-30 09:15 | 51.02334 | 4.65185 | 35348 ft | 463 kts | 146° |
| 2026-04-30 09:15 | 50.96809 | 4.70448 | 35352 ft | 463 kts | 146° |
| 2026-04-30 09:16 | 50.91247 | 4.75732 | 35345 ft | 463 kts | 146° |
| 2026-04-30 09:16 | 50.85714 | 4.80974 | 35347 ft | 463 kts | 146° |
| 2026-04-30 09:17 | 50.80180 | 4.86201 | 35343 ft | 464 kts | 146° |
| 2026-04-30 09:17 | 50.74637 | 4.91423 | 35339 ft | 464 kts | 146° |
| 2026-04-30 09:18 | 50.69096 | 4.96630 | 35331 ft | 464 kts | 146° |
| 2026-04-30 09:18 | 50.63554 | 5.01820 | 35329 ft | 464 kts | 146° |
| 2026-04-30 09:19 | 50.57997 | 5.07012 | 35327 ft | 464 kts | 146° |
| 2026-04-30 09:19 | 50.52368 | 5.12254 | 35333 ft | 464 kts | 146° |
| 2026-04-30 09:20 | 50.46809 | 5.17419 | 35318 ft | 464 kts | 146° |
| 2026-04-30 09:20 | 50.41252 | 5.22570 | 35322 ft | 464 kts | 146° |
| 2026-04-30 09:21 | 50.35691 | 5.27706 | 35315 ft | 464 kts | 146° |
| 2026-04-30 09:21 | 50.30121 | 5.32837 | 35311 ft | 464 kts | 146° |
| 2026-04-30 09:22 | 50.24552 | 5.37956 | 35310 ft | 464 kts | 146° |
| 2026-04-30 09:22 | 50.18982 | 5.43059 | 35314 ft | 464 kts | 146° |
| 2026-04-30 09:23 | 50.13406 | 5.48155 | 35308 ft | 465 kts | 146° |
| 2026-04-30 09:23 | 50.07827 | 5.53239 | 35306 ft | 465 kts | 146° |
| 2026-04-30 09:24 | 50.02234 | 5.58322 | 35306 ft | 465 kts | 146° |
| 2026-04-30 09:24 | 49.96641 | 5.63391 | 35314 ft | 465 kts | 147° |
| 2026-04-30 09:25 | 49.91043 | 5.68451 | 35309 ft | 466 kts | 147° |
| 2026-04-30 09:25 | 49.87295 | 5.71832 | 35308 ft | 466 kts | 147° |
| 2026-04-30 09:26 | 49.81394 | 5.77142 | 35308 ft | 466 kts | 147° |
| 2026-04-30 09:26 | 49.75780 | 5.82179 | 35321 ft | 466 kts | 147° |
| 2026-04-30 09:27 | 49.70163 | 5.87205 | 35310 ft | 467 kts | 147° |
| 2026-04-30 09:27 | 49.64544 | 5.92219 | 35321 ft | 466 kts | 147° |
| 2026-04-30 09:28 | 49.58922 | 5.97222 | 35318 ft | 466 kts | 147° |
| 2026-04-30 09:28 | 49.53304 | 6.02208 | 35317 ft | 466 kts | 147° |
| 2026-04-30 09:29 | 49.47679 | 6.07189 | 35312 ft | 466 kts | 147° |
| 2026-04-30 09:29 | 49.42049 | 6.12160 | 35315 ft | 467 kts | 147° |
| 2026-04-30 09:30 | 49.36414 | 6.17123 | 35303 ft | 467 kts | 147° |
| 2026-04-30 09:30 | 49.30776 | 6.22073 | 35299 ft | 467 kts | 147° |
| 2026-04-30 09:31 | 49.25122 | 6.27024 | 35280 ft | 468 kts | 147° |
| 2026-04-30 09:31 | 49.19467 | 6.31963 | 35302 ft | 468 kts | 147° |
| 2026-04-30 09:32 | 49.13807 | 6.36896 | 35301 ft | 469 kts | 147° |
| 2026-04-30 09:32 | 49.08131 | 6.41830 | 35279 ft | 470 kts | 147° |
| 2026-04-30 09:33 | 49.03406 | 6.45924 | 35281 ft | 470 kts | 147° |
| 2026-04-30 09:33 | 48.96786 | 6.51646 | 35302 ft | 471 kts | 147° |
| 2026-04-30 09:34 | 48.91079 | 6.56566 | 35281 ft | 472 kts | 147° |
| 2026-04-30 09:34 | 48.86289 | 6.60685 | 35285 ft | 472 kts | 147° |
| 2026-04-30 09:35 | 48.80560 | 6.65600 | 35271 ft | 473 kts | 147° |
| 2026-04-30 09:35 | 48.74821 | 6.70510 | 35262 ft | 474 kts | 147° |
| 2026-04-30 09:36 | 48.69072 | 6.75414 | 35256 ft | 475 kts | 147° |
| 2026-04-30 09:36 | 48.63315 | 6.80315 | 35248 ft | 475 kts | 148° |
| 2026-04-30 09:37 | 48.57583 | 6.85180 | 35246 ft | 476 kts | 148° |
| 2026-04-30 09:37 | 48.51764 | 6.90108 | 35239 ft | 476 kts | 148° |
| 2026-04-30 09:38 | 48.46017 | 6.94959 | 35243 ft | 476 kts | 148° |
| 2026-04-30 09:38 | 48.40230 | 6.99832 | 35240 ft | 477 kts | 148° |
| 2026-04-30 09:39 | 48.34442 | 7.04692 | 35243 ft | 477 kts | 148° |
| 2026-04-30 09:39 | 48.28642 | 7.09552 | 35254 ft | 477 kts | 148° |
| 2026-04-30 09:40 | 48.22836 | 7.14404 | 35266 ft | 477 kts | 148° |
| 2026-04-30 09:40 | 48.17026 | 7.19246 | 35267 ft | 478 kts | 148° |
| 2026-04-30 09:41 | 48.11201 | 7.24087 | 35271 ft | 479 kts | 148° |
| 2026-04-30 09:41 | 48.05359 | 7.28930 | 35271 ft | 480 kts | 148° |
| 2026-04-30 09:42 | 47.99508 | 7.33768 | 35263 ft | 481 kts | 148° |
| 2026-04-30 09:42 | 47.93646 | 7.38603 | 35269 ft | 481 kts | 148° |
| 2026-04-30 09:43 | 47.87778 | 7.43429 | 35260 ft | 482 kts | 148° |
| 2026-04-30 09:43 | 47.81913 | 7.48242 | 35246 ft | 482 kts | 148° |
| 2026-04-30 09:44 | 47.76041 | 7.53050 | 35246 ft | 482 kts | 148° |
| 2026-04-30 09:44 | 47.70067 | 7.57602 | 35244 ft | 483 kts | 152° |
| 2026-04-30 09:45 | 47.63982 | 7.61853 | 35239 ft | 484 kts | 152° |
| 2026-04-30 09:45 | 47.57880 | 7.66090 | 35238 ft | 484 kts | 152° |
| 2026-04-30 09:46 | 47.51785 | 7.70343 | 35245 ft | 485 kts | 152° |
| 2026-04-30 09:46 | 47.45689 | 7.74606 | 35245 ft | 485 kts | 152° |
| 2026-04-30 09:47 | 47.39580 | 7.78870 | 35250 ft | 486 kts | 152° |
| 2026-04-30 09:47 | 47.33465 | 7.83126 | 35247 ft | 486 kts | 152° |
| 2026-04-30 09:48 | 47.29370 | 7.85968 | 35244 ft | 487 kts | 152° |
| 2026-04-30 09:48 | 47.25521 | 7.88636 | 35240 ft | 487 kts | 152° |
| 2026-04-30 09:49 | 47.19402 | 7.92869 | 35238 ft | 487 kts | 152° |
| 2026-04-30 09:49 | 47.13246 | 7.97116 | 35090 ft | 487 kts | 152° |
| 2026-04-30 09:50 | 47.10196 | 7.99214 | 34586 ft | 482 kts | 152° |
| 2026-04-30 09:50 | 47.07172 | 8.01290 | 34125 ft | 476 kts | 152° |
| 2026-04-30 09:50 | 47.04193 | 8.03333 | 33684 ft | 470 kts | 152° |
| 2026-04-30 09:50 | 47.01255 | 8.05347 | 33271 ft | 463 kts | 152° |
| 2026-04-30 09:51 | 46.98361 | 8.07329 | 32915 ft | 456 kts | 152° |
| 2026-04-30 09:51 | 46.95509 | 8.09281 | 32561 ft | 449 kts | 152° |
| 2026-04-30 09:51 | 46.92739 | 8.11174 | 32208 ft | 442 kts | 152° |
| 2026-04-30 09:51 | 46.89969 | 8.13065 | 31865 ft | 436 kts | 151° |
| 2026-04-30 09:52 | 46.87239 | 8.14927 | 31543 ft | 430 kts | 151° |
| 2026-04-30 09:52 | 46.84541 | 8.16766 | 31155 ft | 425 kts | 151° |
| 2026-04-30 09:52 | 46.81866 | 8.18586 | 30702 ft | 423 kts | 151° |
| 2026-04-30 09:52 | 46.79207 | 8.20394 | 30303 ft | 420 kts | 151° |
| 2026-04-30 09:53 | 46.76576 | 8.22182 | 29803 ft | 416 kts | 151° |
| 2026-04-30 09:53 | 46.73960 | 8.23958 | 29323 ft | 413 kts | 151° |
| 2026-04-30 09:53 | 46.71366 | 8.25715 | 28857 ft | 409 kts | 151° |
| 2026-04-30 09:53 | 46.68793 | 8.27456 | 28421 ft | 406 kts | 151° |
| 2026-04-30 09:54 | 46.66234 | 8.29187 | 27969 ft | 404 kts | 151° |
| 2026-04-30 09:54 | 46.63692 | 8.30903 | 27517 ft | 402 kts | 151° |
| 2026-04-30 09:54 | 46.61164 | 8.32610 | 27091 ft | 400 kts | 151° |
| 2026-04-30 09:54 | 46.58642 | 8.34311 | 26662 ft | 398 kts | 151° |
| 2026-04-30 09:55 | 46.56138 | 8.35997 | 26237 ft | 396 kts | 151° |
| 2026-04-30 09:55 | 46.53643 | 8.37673 | 25787 ft | 393 kts | 152° |
| 2026-04-30 09:55 | 46.51544 | 8.39083 | 25447 ft | 391 kts | 151° |
| 2026-04-30 09:55 | 46.49085 | 8.40735 | 25081 ft | 389 kts | 151° |
| 2026-04-30 09:56 | 46.46635 | 8.42380 | 24673 ft | 387 kts | 151° |
| 2026-04-30 09:56 | 46.44194 | 8.44016 | 24282 ft | 386 kts | 151° |
| 2026-04-30 09:56 | 46.41760 | 8.45645 | 23887 ft | 384 kts | 152° |
| 2026-04-30 09:56 | 46.39337 | 8.47265 | 23437 ft | 382 kts | 152° |
| 2026-04-30 09:57 | 46.36930 | 8.48873 | 22991 ft | 381 kts | 152° |
| 2026-04-30 09:57 | 46.34524 | 8.50478 | 22568 ft | 380 kts | 152° |
| 2026-04-30 09:57 | 46.32130 | 8.52075 | 22111 ft | 378 kts | 152° |
| 2026-04-30 09:57 | 46.29745 | 8.53664 | 21680 ft | 377 kts | 152° |
| 2026-04-30 09:58 | 46.27369 | 8.55245 | 21242 ft | 375 kts | 152° |
| 2026-04-30 09:58 | 46.25003 | 8.56818 | 20833 ft | 373 kts | 152° |
| 2026-04-30 09:58 | 46.22652 | 8.58381 | 20418 ft | 372 kts | 152° |
| 2026-04-30 09:58 | 46.20305 | 8.59940 | 20009 ft | 371 kts | 153° |
| 2026-04-30 09:59 | 46.15632 | 8.63038 | 19188 ft | 368 kts | 153° |
| 2026-04-30 09:59 | 46.11025 | 8.66083 | 18391 ft | 365 kts | 153° |
| 2026-04-30 10:00 | 46.06250 | 8.68520 | 17483 ft | 364 kts | 162° |
| 2026-04-30 10:00 | 46.03819 | 8.69499 | 17051 ft | 362 kts | 162° |
| 2026-04-30 10:01 | 45.99009 | 8.71501 | 16176 ft | 358 kts | 162° |
| 2026-04-30 10:01 | 45.96631 | 8.72536 | 15757 ft | 356 kts | 162° |
| 2026-04-30 10:01 | 45.94266 | 8.73571 | 15398 ft | 353 kts | 162° |
| 2026-04-30 10:02 | 45.89732 | 8.75551 | 15310 ft | 328 kts | 162° |
| 2026-04-30 10:02 | 45.87538 | 8.76508 | 15170 ft | 331 kts | 162° |
| 2026-04-30 10:02 | 45.85329 | 8.77471 | 14930 ft | 331 kts | 162° |
| 2026-04-30 10:02 | 45.83127 | 8.78428 | 14615 ft | 331 kts | 162° |
| 2026-04-30 10:03 | 45.80937 | 8.79379 | 14254 ft | 329 kts | 162° |
| 2026-04-30 10:03 | 45.78754 | 8.80328 | 13949 ft | 325 kts | 163° |
| 2026-04-30 10:03 | 45.76600 | 8.81263 | 13572 ft | 322 kts | 163° |
| 2026-04-30 10:03 | 45.74965 | 8.81972 | 13187 ft | 321 kts | 162° |
| 2026-04-30 10:04 | 45.72832 | 8.82896 | 12795 ft | 319 kts | 162° |
| 2026-04-30 10:04 | 45.70708 | 8.83815 | 12441 ft | 318 kts | 162° |
| 2026-04-30 10:04 | 45.68867 | 8.84612 | 12111 ft | 317 kts | 162° |
| 2026-04-30 10:04 | 45.67425 | 8.85237 | 11852 ft | 317 kts | 163° |
| 2026-04-30 10:05 | 45.65326 | 8.86146 | 11464 ft | 315 kts | 163° |
| 2026-04-30 10:05 | 45.63231 | 8.87052 | 11091 ft | 313 kts | 163° |
| 2026-04-30 10:05 | 45.61153 | 8.87916 | 10716 ft | 307 kts | 166° |
| 2026-04-30 10:05 | 45.59093 | 8.88518 | 10338 ft | 297 kts | 170° |
| 2026-04-30 10:06 | 45.57094 | 8.89015 | 9938 ft | 287 kts | 170° |
| 2026-04-30 10:06 | 45.55169 | 8.89507 | 9530 ft | 278 kts | 169° |
| 2026-04-30 10:06 | 45.53307 | 8.90000 | 9303 ft | 262 kts | 169° |
| 2026-04-30 10:06 | 45.51546 | 8.90474 | 9313 ft | 260 kts | 169° |
| 2026-04-30 10:07 | 45.49750 | 8.90960 | 9244 ft | 266 kts | 169° |
| 2026-04-30 10:07 | 45.47912 | 8.91458 | 8892 ft | 269 kts | 168° |
| 2026-04-30 10:07 | 45.46091 | 8.91954 | 8533 ft | 263 kts | 168° |
| 2026-04-30 10:07 | 45.44326 | 8.92434 | 8152 ft | 254 kts | 168° |
| 2026-04-30 10:08 | 45.42621 | 8.92896 | 7789 ft | 245 kts | 168° |
| 2026-04-30 10:08 | 45.40976 | 8.93341 | 7423 ft | 236 kts | 167° |
| 2026-04-30 10:08 | 45.39400 | 8.93766 | 7164 ft | 224 kts | 167° |
| 2026-04-30 10:08 | 45.37863 | 8.94186 | 6875 ft | 226 kts | 167° |
| 2026-04-30 10:09 | 45.36313 | 8.94608 | 6506 ft | 227 kts | 166° |
| 2026-04-30 10:09 | 45.34770 | 8.95022 | 6119 ft | 225 kts | 166° |
| 2026-04-30 10:09 | 45.33251 | 8.95433 | 5864 ft | 219 kts | 166° |
| 2026-04-30 10:09 | 45.31760 | 8.95837 | 5601 ft | 217 kts | 166° |
| 2026-04-30 10:10 | 45.30282 | 8.96237 | 5325 ft | 214 kts | 167° |
| 2026-04-30 10:10 | 45.28816 | 8.96154 | 4977 ft | 216 kts | 196° |
| 2026-04-30 10:10 | 45.27616 | 8.94891 | 4628 ft | 220 kts | 231° |
| 2026-04-30 10:10 | 45.27118 | 8.92835 | 4381 ft | 225 kts | 267° |
| 2026-04-30 10:11 | 45.27483 | 8.90696 | 4087 ft | 224 kts | 298° |
| 2026-04-30 10:11 | 45.28258 | 8.88818 | 4055 ft | 221 kts | 302° |
| 2026-04-30 10:11 | 45.29089 | 8.86952 | 4022 ft | 226 kts | 303° |
| 2026-04-30 10:11 | 45.29937 | 8.85050 | 4000 ft | 229 kts | 303° |
| 2026-04-30 10:12 | 45.30844 | 8.83205 | 3987 ft | 226 kts | 319° |
| 2026-04-30 10:12 | 45.32182 | 8.82146 | 3990 ft | 219 kts | 345° |
| 2026-04-30 10:12 | 45.33638 | 8.81547 | 4007 ft | 215 kts | 349° |
| 2026-04-30 10:12 | 45.35092 | 8.81073 | 3973 ft | 213 kts | 352° |
| 2026-04-30 10:13 | 45.36519 | 8.80668 | 3997 ft | 207 kts | 353° |
| 2026-04-30 10:13 | 45.37937 | 8.80284 | 4020 ft | 208 kts | 353° |
| 2026-04-30 10:13 | 45.39352 | 8.79889 | 4008 ft | 205 kts | 353° |
| 2026-04-30 10:13 | 45.40729 | 8.79508 | 3969 ft | 197 kts | 353° |
| 2026-04-30 10:14 | 45.42076 | 8.79140 | 3991 ft | 196 kts | 353° |
| 2026-04-30 10:14 | 45.43407 | 8.78775 | 3998 ft | 194 kts | 353° |
| 2026-04-30 10:14 | 45.46077 | 8.78038 | 3904 ft | 199 kts | 353° |
| 2026-04-30 10:15 | 45.47433 | 8.77661 | 3636 ft | 195 kts | 353° |
| 2026-04-30 10:15 | 45.48739 | 8.77303 | 3366 ft | 187 kts | 353° |
| 2026-04-30 10:15 | 45.49987 | 8.76959 | 3129 ft | 179 kts | 353° |
| 2026-04-30 10:15 | 45.51156 | 8.76636 | 2886 ft | 174 kts | 353° |
| 2026-04-30 10:16 | 45.52344 | 8.76309 | 2666 ft | 174 kts | 353° |
| 2026-04-30 10:16 | 45.53541 | 8.75977 | 2455 ft | 177 kts | 353° |
| 2026-04-30 10:16 | 45.54752 | 8.75644 | 2187 ft | 177 kts | 352° |
| 2026-04-30 10:17 | 45.57018 | 8.75017 | 1759 ft | 161 kts | 352° |
| 2026-04-30 10:17 | 45.59174 | 8.74408 | 1189 ft | 152 kts | 351° |
| 2026-04-30 10:17 | 45.60196 | 8.74125 | 1016 ft | 147 kts | 352° |
| 2026-04-30 10:18 | 45.61204 | 8.73846 | 850 ft | 148 kts | 352° |
| 2026-04-30 10:18 | 45.62185 | 8.73577 | 743 ft | 136 kts | 351° |
| 2026-04-30 10:18 | 45.62969 | 8.73366 | 739 ft | 89 kts | 349° |
| 2026-04-30 10:19 | 45.63672 | 8.73117 | 741 ft | 30 kts | 328° |
| 2026-04-30 10:19 | 45.63783 | 8.72975 | 740 ft | 13 kts | 307° |
| 2026-04-30 10:19 | 45.63820 | 8.72904 | 740 ft | 7 kts | 306° |
| 2026-04-30 10:19 | 45.63847 | 8.72849 | 740 ft | 7 kts | 306° |
| 2026-04-30 10:20 | 45.63874 | 8.72795 | 737 ft | 7 kts | 304° |
| 2026-04-30 10:20 | 45.63917 | 8.72701 | 739 ft | 7 kts | 303° |
| 2026-04-30 10:20 | 45.63945 | 8.72641 | 739 ft | 8 kts | 302° |
| 2026-04-30 10:21 | 45.63957 | 8.72561 | 740 ft | 10 kts | 263° |
| 2026-04-30 10:21 | 45.63942 | 8.72447 | 740 ft | 13 kts | 259° |
| 2026-04-30 10:21 | 45.63923 | 8.72307 | 740 ft | 15 kts | 259° |
| 2026-04-30 10:21 | 45.63914 | 8.72163 | 739 ft | 15 kts | 266° |
| 2026-04-30 10:22 | 45.63909 | 8.72017 | 739 ft | 15 kts | 267° |
| 2026-04-30 10:22 | 45.63887 | 8.71876 | 741 ft | 15 kts | 240° |
| 2026-04-30 10:22 | 45.63800 | 8.71825 | 739 ft | 15 kts | 169° |
| 2026-04-30 10:22 | 45.63700 | 8.71853 | 739 ft | 15 kts | 169° |
| 2026-04-30 10:23 | 45.63599 | 8.71882 | 740 ft | 15 kts | 169° |
| 2026-04-30 10:23 | 45.63499 | 8.71910 | 740 ft | 15 kts | 168° |
| 2026-04-30 10:23 | 45.63391 | 8.71938 | 740 ft | 18 kts | 170° |
| 2026-04-30 10:23 | 45.63253 | 8.71975 | 740 ft | 22 kts | 169° |
| 2026-04-30 10:24 | 45.63100 | 8.72017 | 740 ft | 23 kts | 169° |
| 2026-04-30 10:24 | 45.62946 | 8.72060 | 738 ft | 23 kts | 169° |
| 2026-04-30 10:24 | 45.62792 | 8.72104 | 740 ft | 23 kts | 168° |
| 2026-04-30 10:24 | 45.62639 | 8.72146 | 741 ft | 23 kts | 170° |
| 2026-04-30 10:25 | 45.62484 | 8.72186 | 740 ft | 23 kts | 169° |
| 2026-04-30 10:25 | 45.62331 | 8.72229 | 739 ft | 23 kts | 168° |
| 2026-04-30 10:25 | 45.62177 | 8.72273 | 740 ft | 23 kts | 168° |
| 2026-04-30 10:25 | 45.62024 | 8.72318 | 739 ft | 23 kts | 168° |
| 2026-04-30 10:26 | 45.61870 | 8.72362 | 740 ft | 23 kts | 168° |
| 2026-04-30 10:26 | 45.61716 | 8.72405 | 740 ft | 23 kts | 172° |
| 2026-04-30 10:26 | 45.61564 | 8.72442 | 740 ft | 18 kts | 169° |
| 2026-04-30 10:26 | 45.61465 | 8.72470 | 740 ft | 12 kts | 168° |
| 2026-04-30 10:27 | 45.61410 | 8.72436 | 739 ft | 9 kts | 244° |
| 2026-04-30 10:27 | 45.61394 | 8.72346 | 741 ft | 9 kts | 257° |
| 2026-04-30 10:27 | 45.61381 | 8.72255 | 739 ft | 9 kts | 259° |
| 2026-04-30 10:27 | 45.61376 | 8.72162 | 740 ft | 9 kts | 261° |
| 2026-04-30 10:28 | 45.61364 | 8.72084 | 739 ft | 0 kts | 257° |
| 2026-04-30 10:28 | 45.61363 | 8.72080 | 739 ft | 1 kts | 257° |
| 2026-04-30 10:28 | 45.61361 | 8.72070 | 738 ft | 1 kts | 257° |
| 2026-04-30 10:28 | 45.61360 | 8.72056 | 738 ft | 2 kts | 260° |
| 2026-04-30 10:29 | 45.61360 | 8.72055 | 738 ft | 0 kts | 260° |